sensor_id;sensor_type;location;lat;lon;timestamp;P1;durP1;ratioP1;P2;durP2;ratioP2
9763;SDS011;4921;43.214;27.936;2023-06-22T00:01:16;12.73;;;10.50;;
9763;SDS011;4921;43.214;27.936;2023-06-22T00:03:43;12.47;;;10.10;;
9763;SDS011;4921;43.214;27.936;2023-06-22T00:06:10;14.07;;;11.47;;
9763;SDS011;4921;43.214;27.936;2023-06-22T00:08:37;16.33;;;13.00;;
9763;SDS011;4921;43.214;27.936;2023-06-22T00:11:05;17.90;;;13.50;;
9763;SDS011;4921;43.214;27.936;2023-06-22T00:13:33;16.57;;;14.07;;
9763;SDS011;4921;43.214;27.936;2023-06-22T00:16:00;15.23;;;13.37;;
9763;SDS011;4921;43.214;27.936;2023-06-22T00:18:27;17.97;;;13.50;;
9763;SDS011;4921;43.214;27.936;2023-06-22T00:20:55;17.53;;;12.87;;
9763;SDS011;4921;43.214;27.936;2023-06-22T00:23:23;18.90;;;13.40;;
9763;SDS011;4921;43.214;27.936;2023-06-22T00:25:51;19.67;;;13.87;;
9763;SDS011;4921;43.214;27.936;2023-06-22T00:28:19;19.93;;;13.73;;
9763;SDS011;4921;43.214;27.936;2023-06-22T00:30:47;14.57;;;13.17;;
9763;SDS011;4921;43.214;27.936;2023-06-22T00:33:15;15.63;;;13.37;;
9763;SDS011;4921;43.214;27.936;2023-06-22T00:35:42;14.83;;;12.17;;
9763;SDS011;4921;43.214;27.936;2023-06-22T00:38:09;19.00;;;13.10;;
9763;SDS011;4921;43.214;27.936;2023-06-22T00:40:36;14.43;;;12.30;;
9763;SDS011;4921;43.214;27.936;2023-06-22T00:43:05;13.37;;;12.07;;
9763;SDS011;4921;43.214;27.936;2023-06-22T00:45:33;15.73;;;12.50;;
9763;SDS011;4921;43.214;27.936;2023-06-22T00:48:00;17.33;;;13.87;;
9763;SDS011;4921;43.214;27.936;2023-06-22T00:50:28;20.60;;;13.57;;
9763;SDS011;4921;43.214;27.936;2023-06-22T00:52:58;20.47;;;14.23;;
9763;SDS011;4921;43.214;27.936;2023-06-22T00:55:27;17.53;;;13.87;;
9763;SDS011;4921;43.214;27.936;2023-06-22T00:57:54;20.33;;;14.23;;
9763;SDS011;4921;43.214;27.936;2023-06-22T01:00:22;20.83;;;13.57;;
9763;SDS011;4921;43.214;27.936;2023-06-22T01:02:52;22.40;;;13.97;;
9763;SDS011;4921;43.214;27.936;2023-06-22T01:05:20;22.33;;;14.53;;
9763;SDS011;4921;43.214;27.936;2023-06-22T01:07:51;17.53;;;13.77;;
9763;SDS011;4921;43.214;27.936;2023-06-22T01:10:32;16.63;;;13.03;;
9763;SDS011;4921;43.214;27.936;2023-06-22T01:13:06;20.83;;;12.53;;
9763;SDS011;4921;43.214;27.936;2023-06-22T01:15:41;15.77;;;14.17;;
9763;SDS011;4921;43.214;27.936;2023-06-22T01:18:15;16.63;;;13.63;;
9763;SDS011;4921;43.214;27.936;2023-06-22T01:20:45;17.37;;;13.67;;
9763;SDS011;4921;43.214;27.936;2023-06-22T01:23:17;17.67;;;14.27;;
9763;SDS011;4921;43.214;27.936;2023-06-22T01:25:54;14.93;;;13.30;;
9763;SDS011;4921;43.214;27.936;2023-06-22T01:28:39;19.23;;;14.70;;
9763;SDS011;4921;43.214;27.936;2023-06-22T01:31:12;19.10;;;13.20;;
9763;SDS011;4921;43.214;27.936;2023-06-22T01:33:42;16.83;;;13.73;;
9763;SDS011;4921;43.214;27.936;2023-06-22T01:36:11;14.23;;;12.53;;
9763;SDS011;4921;43.214;27.936;2023-06-22T01:38:40;15.77;;;12.43;;
9763;SDS011;4921;43.214;27.936;2023-06-22T01:41:08;15.50;;;12.47;;
9763;SDS011;4921;43.214;27.936;2023-06-22T01:43:36;15.67;;;11.83;;
9763;SDS011;4921;43.214;27.936;2023-06-22T01:46:04;12.87;;;11.57;;
9763;SDS011;4921;43.214;27.936;2023-06-22T01:48:32;12.97;;;11.67;;
9763;SDS011;4921;43.214;27.936;2023-06-22T01:50:59;15.53;;;11.50;;
9763;SDS011;4921;43.214;27.936;2023-06-22T01:53:26;17.03;;;11.63;;
9763;SDS011;4921;43.214;27.936;2023-06-22T01:55:53;15.20;;;11.47;;
9763;SDS011;4921;43.214;27.936;2023-06-22T01:58:20;12.27;;;10.63;;
9763;SDS011;4921;43.214;27.936;2023-06-22T02:00:50;13.70;;;10.20;;
9763;SDS011;4921;43.214;27.936;2023-06-22T02:03:25;14.23;;;10.90;;
9763;SDS011;4921;43.214;27.936;2023-06-22T02:05:57;12.13;;;8.87;;
9763;SDS011;4921;43.214;27.936;2023-06-22T02:08:30;8.87;;;7.37;;
9763;SDS011;4921;43.214;27.936;2023-06-22T02:11:01;9.87;;;7.63;;
9763;SDS011;4921;43.214;27.936;2023-06-22T02:13:29;9.10;;;7.67;;
9763;SDS011;4921;43.214;27.936;2023-06-22T02:15:58;7.83;;;7.13;;
9763;SDS011;4921;43.214;27.936;2023-06-22T02:18:27;10.00;;;7.03;;
9763;SDS011;4921;43.214;27.936;2023-06-22T02:20:54;15.30;;;8.30;;
9763;SDS011;4921;43.214;27.936;2023-06-22T02:23:21;15.87;;;11.00;;
9763;SDS011;4921;43.214;27.936;2023-06-22T02:25:48;17.33;;;13.50;;
9763;SDS011;4921;43.214;27.936;2023-06-22T02:28:15;17.10;;;11.70;;
9763;SDS011;4921;43.214;27.936;2023-06-22T02:30:42;16.07;;;13.50;;
9763;SDS011;4921;43.214;27.936;2023-06-22T02:33:09;16.17;;;13.97;;
9763;SDS011;4921;43.214;27.936;2023-06-22T02:35:37;18.43;;;14.30;;
9763;SDS011;4921;43.214;27.936;2023-06-22T02:38:05;15.57;;;13.80;;
9763;SDS011;4921;43.214;27.936;2023-06-22T02:40:33;18.23;;;13.60;;
9763;SDS011;4921;43.214;27.936;2023-06-22T02:43:00;22.97;;;14.90;;
9763;SDS011;4921;43.214;27.936;2023-06-22T02:45:28;15.73;;;12.60;;
9763;SDS011;4921;43.214;27.936;2023-06-22T02:47:55;18.13;;;13.27;;
9763;SDS011;4921;43.214;27.936;2023-06-22T02:50:22;16.33;;;11.77;;
9763;SDS011;4921;43.214;27.936;2023-06-22T02:52:51;21.00;;;12.70;;
9763;SDS011;4921;43.214;27.936;2023-06-22T02:55:17;17.50;;;12.03;;
9763;SDS011;4921;43.214;27.936;2023-06-22T02:57:45;16.03;;;11.30;;
9763;SDS011;4921;43.214;27.936;2023-06-22T03:00:13;16.70;;;11.00;;
9763;SDS011;4921;43.214;27.936;2023-06-22T03:02:43;15.93;;;11.20;;
9763;SDS011;4921;43.214;27.936;2023-06-22T03:05:10;11.93;;;9.97;;
9763;SDS011;4921;43.214;27.936;2023-06-22T03:07:39;12.37;;;10.27;;
9763;SDS011;4921;43.214;27.936;2023-06-22T03:10:09;14.53;;;10.43;;
9763;SDS011;4921;43.214;27.936;2023-06-22T03:12:37;14.40;;;10.53;;
9763;SDS011;4921;43.214;27.936;2023-06-22T03:15:05;14.70;;;10.20;;
9763;SDS011;4921;43.214;27.936;2023-06-22T03:17:33;15.90;;;10.50;;
9763;SDS011;4921;43.214;27.936;2023-06-22T03:20:01;15.20;;;11.93;;
9763;SDS011;4921;43.214;27.936;2023-06-22T03:22:34;13.27;;;11.03;;
9763;SDS011;4921;43.214;27.936;2023-06-22T03:25:01;12.67;;;10.80;;
9763;SDS011;4921;43.214;27.936;2023-06-22T03:27:29;15.10;;;10.47;;
9763;SDS011;4921;43.214;27.936;2023-06-22T03:29:56;14.13;;;9.97;;
9763;SDS011;4921;43.214;27.936;2023-06-22T03:32:23;19.27;;;10.73;;
9763;SDS011;4921;43.214;27.936;2023-06-22T03:34:53;12.57;;;10.30;;
9763;SDS011;4921;43.214;27.936;2023-06-22T03:37:24;11.43;;;9.10;;
9763;SDS011;4921;43.214;27.936;2023-06-22T03:39:50;14.13;;;9.93;;
9763;SDS011;4921;43.214;27.936;2023-06-22T03:42:18;17.23;;;9.20;;
9763;SDS011;4921;43.214;27.936;2023-06-22T03:44:46;10.93;;;8.93;;
9763;SDS011;4921;43.214;27.936;2023-06-22T03:47:13;12.67;;;9.57;;
9763;SDS011;4921;43.214;27.936;2023-06-22T03:49:40;10.33;;;9.10;;
9763;SDS011;4921;43.214;27.936;2023-06-22T03:52:07;10.20;;;8.10;;
9763;SDS011;4921;43.214;27.936;2023-06-22T03:54:34;8.53;;;7.23;;
9763;SDS011;4921;43.214;27.936;2023-06-22T03:57:01;12.70;;;7.03;;
9763;SDS011;4921;43.214;27.936;2023-06-22T03:59:28;7.70;;;6.80;;
9763;SDS011;4921;43.214;27.936;2023-06-22T04:01:56;8.03;;;6.63;;
9763;SDS011;4921;43.214;27.936;2023-06-22T04:04:23;8.00;;;6.83;;
9763;SDS011;4921;43.214;27.936;2023-06-22T04:06:50;9.33;;;7.00;;
9763;SDS011;4921;43.214;27.936;2023-06-22T04:09:17;7.40;;;6.70;;
9763;SDS011;4921;43.214;27.936;2023-06-22T04:11:44;6.60;;;6.00;;
9763;SDS011;4921;43.214;27.936;2023-06-22T04:14:11;7.50;;;6.80;;
9763;SDS011;4921;43.214;27.936;2023-06-22T04:16:38;6.77;;;6.10;;
9763;SDS011;4921;43.214;27.936;2023-06-22T04:19:06;6.50;;;6.00;;
9763;SDS011;4921;43.214;27.936;2023-06-22T04:21:39;6.53;;;6.03;;
9763;SDS011;4921;43.214;27.936;2023-06-22T04:24:06;9.03;;;6.90;;
9763;SDS011;4921;43.214;27.936;2023-06-22T04:26:33;9.10;;;6.23;;
9763;SDS011;4921;43.214;27.936;2023-06-22T04:29:02;7.17;;;5.60;;
9763;SDS011;4921;43.214;27.936;2023-06-22T04:31:30;8.27;;;6.17;;
9763;SDS011;4921;43.214;27.936;2023-06-22T04:34:02;9.33;;;5.87;;
9763;SDS011;4921;43.214;27.936;2023-06-22T04:36:33;8.90;;;6.43;;
9763;SDS011;4921;43.214;27.936;2023-06-22T04:39:03;8.73;;;5.97;;
9763;SDS011;4921;43.214;27.936;2023-06-22T04:41:32;8.63;;;6.57;;
9763;SDS011;4921;43.214;27.936;2023-06-22T04:44:07;10.70;;;5.60;;
9763;SDS011;4921;43.214;27.936;2023-06-22T04:46:35;12.80;;;6.47;;
9763;SDS011;4921;43.214;27.936;2023-06-22T04:49:06;6.70;;;5.83;;
9763;SDS011;4921;43.214;27.936;2023-06-22T04:51:37;7.07;;;5.80;;
9763;SDS011;4921;43.214;27.936;2023-06-22T04:54:05;6.20;;;5.70;;
9763;SDS011;4921;43.214;27.936;2023-06-22T04:56:33;8.00;;;6.23;;
9763;SDS011;4921;43.214;27.936;2023-06-22T04:59:00;9.30;;;5.93;;
9763;SDS011;4921;43.214;27.936;2023-06-22T05:01:28;8.47;;;6.30;;
9763;SDS011;4921;43.214;27.936;2023-06-22T05:03:56;6.37;;;5.77;;
9763;SDS011;4921;43.214;27.936;2023-06-22T05:06:26;8.60;;;7.10;;
9763;SDS011;4921;43.214;27.936;2023-06-22T05:08:54;14.73;;;8.07;;
9763;SDS011;4921;43.214;27.936;2023-06-22T05:11:24;9.57;;;7.90;;
9763;SDS011;4921;43.214;27.936;2023-06-22T05:13:51;8.13;;;7.33;;
9763;SDS011;4921;43.214;27.936;2023-06-22T05:16:18;11.40;;;7.50;;
9763;SDS011;4921;43.214;27.936;2023-06-22T05:18:49;8.43;;;7.20;;
9763;SDS011;4921;43.214;27.936;2023-06-22T05:21:17;10.67;;;7.03;;
9763;SDS011;4921;43.214;27.936;2023-06-22T05:23:44;9.37;;;7.47;;
9763;SDS011;4921;43.214;27.936;2023-06-22T05:26:12;11.17;;;7.23;;
9763;SDS011;4921;43.214;27.936;2023-06-22T05:28:39;13.17;;;7.43;;
9763;SDS011;4921;43.214;27.936;2023-06-22T05:31:06;10.83;;;7.40;;
9763;SDS011;4921;43.214;27.936;2023-06-22T05:33:34;15.03;;;7.43;;
9763;SDS011;4921;43.214;27.936;2023-06-22T05:36:01;9.83;;;7.63;;
9763;SDS011;4921;43.214;27.936;2023-06-22T05:38:28;13.10;;;7.63;;
9763;SDS011;4921;43.214;27.936;2023-06-22T05:40:55;7.53;;;6.83;;
9763;SDS011;4921;43.214;27.936;2023-06-22T05:43:23;12.87;;;6.80;;
9763;SDS011;4921;43.214;27.936;2023-06-22T05:45:50;11.77;;;6.90;;
9763;SDS011;4921;43.214;27.936;2023-06-22T05:48:17;8.90;;;7.20;;
9763;SDS011;4921;43.214;27.936;2023-06-22T05:50:45;10.00;;;6.63;;
9763;SDS011;4921;43.214;27.936;2023-06-22T05:53:11;11.53;;;6.57;;
9763;SDS011;4921;43.214;27.936;2023-06-22T05:55:38;9.70;;;6.83;;
9763;SDS011;4921;43.214;27.936;2023-06-22T05:58:06;9.00;;;7.17;;
9763;SDS011;4921;43.214;27.936;2023-06-22T06:00:34;7.27;;;6.37;;
9763;SDS011;4921;43.214;27.936;2023-06-22T06:03:02;10.43;;;6.30;;
9763;SDS011;4921;43.214;27.936;2023-06-22T06:05:29;9.17;;;6.53;;
9763;SDS011;4921;43.214;27.936;2023-06-22T06:07:56;8.77;;;6.00;;
9763;SDS011;4921;43.214;27.936;2023-06-22T06:10:23;7.97;;;6.00;;
9763;SDS011;4921;43.214;27.936;2023-06-22T06:12:50;7.83;;;6.50;;
9763;SDS011;4921;43.214;27.936;2023-06-22T06:15:17;7.70;;;6.53;;
9763;SDS011;4921;43.214;27.936;2023-06-22T06:17:46;8.10;;;6.23;;
9763;SDS011;4921;43.214;27.936;2023-06-22T06:20:14;6.80;;;6.10;;
9763;SDS011;4921;43.214;27.936;2023-06-22T06:22:41;9.63;;;5.90;;
9763;SDS011;4921;43.214;27.936;2023-06-22T06:25:09;6.83;;;6.13;;
9763;SDS011;4921;43.214;27.936;2023-06-22T06:27:41;7.37;;;6.37;;
9763;SDS011;4921;43.214;27.936;2023-06-22T06:30:09;7.73;;;6.23;;
9763;SDS011;4921;43.214;27.936;2023-06-22T06:32:36;8.77;;;5.93;;
9763;SDS011;4921;43.214;27.936;2023-06-22T06:35:07;9.20;;;6.40;;
9763;SDS011;4921;43.214;27.936;2023-06-22T06:37:35;6.93;;;6.10;;
9763;SDS011;4921;43.214;27.936;2023-06-22T06:40:04;6.03;;;5.37;;
9763;SDS011;4921;43.214;27.936;2023-06-22T06:42:34;8.73;;;7.93;;
9763;SDS011;4921;43.214;27.936;2023-06-22T06:45:02;7.43;;;5.77;;
9763;SDS011;4921;43.214;27.936;2023-06-22T06:47:30;7.73;;;5.97;;
9763;SDS011;4921;43.214;27.936;2023-06-22T06:49:57;6.83;;;6.23;;
9763;SDS011;4921;43.214;27.936;2023-06-22T06:52:26;9.83;;;6.50;;
9763;SDS011;4921;43.214;27.936;2023-06-22T06:54:53;9.13;;;6.47;;
9763;SDS011;4921;43.214;27.936;2023-06-22T06:57:20;7.30;;;6.60;;
9763;SDS011;4921;43.214;27.936;2023-06-22T06:59:47;11.63;;;6.80;;
9763;SDS011;4921;43.214;27.936;2023-06-22T07:02:14;10.27;;;6.87;;
9763;SDS011;4921;43.214;27.936;2023-06-22T07:04:42;9.33;;;6.23;;
9763;SDS011;4921;43.214;27.936;2023-06-22T07:07:09;11.03;;;7.00;;
9763;SDS011;4921;43.214;27.936;2023-06-22T07:09:37;6.57;;;5.97;;
9763;SDS011;4921;43.214;27.936;2023-06-22T07:12:04;10.30;;;6.73;;
9763;SDS011;4921;43.214;27.936;2023-06-22T07:14:32;10.73;;;6.43;;
9763;SDS011;4921;43.214;27.936;2023-06-22T07:16:59;7.17;;;6.10;;
9763;SDS011;4921;43.214;27.936;2023-06-22T07:19:26;11.93;;;6.37;;
9763;SDS011;4921;43.214;27.936;2023-06-22T07:21:54;7.20;;;5.73;;
9763;SDS011;4921;43.214;27.936;2023-06-22T07:24:21;7.93;;;6.07;;
9763;SDS011;4921;43.214;27.936;2023-06-22T07:26:50;11.73;;;5.60;;
9763;SDS011;4921;43.214;27.936;2023-06-22T07:29:17;6.80;;;6.10;;
9763;SDS011;4921;43.214;27.936;2023-06-22T07:31:45;6.73;;;5.83;;
9763;SDS011;4921;43.214;27.936;2023-06-22T07:34:12;6.97;;;6.27;;
9763;SDS011;4921;43.214;27.936;2023-06-22T07:36:39;6.73;;;5.67;;
9763;SDS011;4921;43.214;27.936;2023-06-22T07:39:06;6.13;;;5.63;;
9763;SDS011;4921;43.214;27.936;2023-06-22T07:41:33;6.43;;;5.77;;
9763;SDS011;4921;43.214;27.936;2023-06-22T07:44:01;6.10;;;5.60;;
9763;SDS011;4921;43.214;27.936;2023-06-22T07:46:28;8.90;;;6.30;;
9763;SDS011;4921;43.214;27.936;2023-06-22T07:48:56;6.37;;;5.77;;
9763;SDS011;4921;43.214;27.936;2023-06-22T07:51:24;6.37;;;5.77;;
9763;SDS011;4921;43.214;27.936;2023-06-22T07:53:51;6.70;;;6.07;;
9763;SDS011;4921;43.214;27.936;2023-06-22T07:56:18;7.27;;;6.17;;
9763;SDS011;4921;43.214;27.936;2023-06-22T07:58:46;8.60;;;6.67;;
9763;SDS011;4921;43.214;27.936;2023-06-22T08:01:14;10.97;;;6.70;;
9763;SDS011;4921;43.214;27.936;2023-06-22T08:03:41;15.33;;;7.03;;
9763;SDS011;4921;43.214;27.936;2023-06-22T08:06:09;7.00;;;6.07;;
9763;SDS011;4921;43.214;27.936;2023-06-22T08:08:36;6.67;;;6.03;;
9763;SDS011;4921;43.214;27.936;2023-06-22T08:11:03;7.43;;;6.33;;
9763;SDS011;4921;43.214;27.936;2023-06-22T08:13:30;7.00;;;6.27;;
9763;SDS011;4921;43.214;27.936;2023-06-22T08:15:57;8.33;;;6.30;;
9763;SDS011;4921;43.214;27.936;2023-06-22T08:18:26;8.07;;;6.87;;
9763;SDS011;4921;43.214;27.936;2023-06-22T08:20:53;8.07;;;7.23;;
9763;SDS011;4921;43.214;27.936;2023-06-22T08:23:20;9.23;;;6.73;;
9763;SDS011;4921;43.214;27.936;2023-06-22T08:25:47;7.60;;;6.43;;
9763;SDS011;4921;43.214;27.936;2023-06-22T08:28:15;8.43;;;6.50;;
9763;SDS011;4921;43.214;27.936;2023-06-22T08:30:42;8.50;;;6.77;;
9763;SDS011;4921;43.214;27.936;2023-06-22T08:33:09;7.80;;;6.47;;
9763;SDS011;4921;43.214;27.936;2023-06-22T08:35:37;6.93;;;6.17;;
9763;SDS011;4921;43.214;27.936;2023-06-22T08:38:04;7.33;;;5.93;;
9763;SDS011;4921;43.214;27.936;2023-06-22T08:40:31;6.60;;;6.10;;
9763;SDS011;4921;43.214;27.936;2023-06-22T08:42:58;8.17;;;6.60;;
9763;SDS011;4921;43.214;27.936;2023-06-22T08:45:25;6.97;;;6.30;;
9763;SDS011;4921;43.214;27.936;2023-06-22T08:47:52;6.50;;;5.93;;
9763;SDS011;4921;43.214;27.936;2023-06-22T08:50:19;6.77;;;6.00;;
9763;SDS011;4921;43.214;27.936;2023-06-22T08:52:48;7.00;;;6.47;;
9763;SDS011;4921;43.214;27.936;2023-06-22T08:55:15;7.83;;;7.10;;
9763;SDS011;4921;43.214;27.936;2023-06-22T08:57:42;7.07;;;6.43;;
9763;SDS011;4921;43.214;27.936;2023-06-22T09:00:09;8.30;;;6.80;;
9763;SDS011;4921;43.214;27.936;2023-06-22T09:02:44;6.90;;;6.40;;
9763;SDS011;4921;43.214;27.936;2023-06-22T09:05:12;7.20;;;6.60;;
9763;SDS011;4921;43.214;27.936;2023-06-22T09:07:39;7.53;;;6.37;;
9763;SDS011;4921;43.214;27.936;2023-06-22T09:10:08;7.53;;;6.83;;
9763;SDS011;4921;43.214;27.936;2023-06-22T09:12:36;6.97;;;6.30;;
9763;SDS011;4921;43.214;27.936;2023-06-22T09:15:04;7.37;;;6.77;;
9763;SDS011;4921;43.214;27.936;2023-06-22T09:17:32;8.23;;;7.43;;
9763;SDS011;4921;43.214;27.936;2023-06-22T09:20:00;9.07;;;7.23;;
9763;SDS011;4921;43.214;27.936;2023-06-22T09:22:30;9.20;;;7.50;;
9763;SDS011;4921;43.214;27.936;2023-06-22T09:24:58;8.20;;;7.50;;
9763;SDS011;4921;43.214;27.936;2023-06-22T09:27:26;9.83;;;7.90;;
9763;SDS011;4921;43.214;27.936;2023-06-22T09:29:53;8.70;;;7.90;;
9763;SDS011;4921;43.214;27.936;2023-06-22T09:32:20;8.93;;;8.17;;
9763;SDS011;4921;43.214;27.936;2023-06-22T09:34:48;16.70;;;8.13;;
9763;SDS011;4921;43.214;27.936;2023-06-22T09:37:15;9.13;;;8.33;;
9763;SDS011;4921;43.214;27.936;2023-06-22T09:39:42;8.57;;;7.80;;
9763;SDS011;4921;43.214;27.936;2023-06-22T09:42:08;9.43;;;8.60;;
9763;SDS011;4921;43.214;27.936;2023-06-22T09:44:38;9.37;;;8.40;;
9763;SDS011;4921;43.214;27.936;2023-06-22T09:47:05;10.90;;;9.10;;
9763;SDS011;4921;43.214;27.936;2023-06-22T09:49:33;9.67;;;8.17;;
9763;SDS011;4921;43.214;27.936;2023-06-22T09:52:00;11.33;;;9.00;;
9763;SDS011;4921;43.214;27.936;2023-06-22T09:54:26;9.27;;;8.47;;
9763;SDS011;4921;43.214;27.936;2023-06-22T09:56:54;9.80;;;8.90;;
9763;SDS011;4921;43.214;27.936;2023-06-22T09:59:20;10.07;;;8.63;;
9763;SDS011;4921;43.214;27.936;2023-06-22T10:01:49;10.53;;;9.17;;
9763;SDS011;4921;43.214;27.936;2023-06-22T10:04:16;11.00;;;8.50;;
9763;SDS011;4921;43.214;27.936;2023-06-22T10:06:43;9.77;;;8.87;;
9763;SDS011;4921;43.214;27.936;2023-06-22T10:09:10;9.10;;;8.40;;
9763;SDS011;4921;43.214;27.936;2023-06-22T10:11:37;8.87;;;8.17;;
9763;SDS011;4921;43.214;27.936;2023-06-22T10:14:04;11.33;;;8.30;;
9763;SDS011;4921;43.214;27.936;2023-06-22T10:16:31;11.53;;;8.60;;
9763;SDS011;4921;43.214;27.936;2023-06-22T10:19:00;11.03;;;8.67;;
9763;SDS011;4921;43.214;27.936;2023-06-22T10:21:27;9.30;;;8.50;;
9763;SDS011;4921;43.214;27.936;2023-06-22T10:23:54;11.97;;;8.33;;
9763;SDS011;4921;43.214;27.936;2023-06-22T10:26:21;8.73;;;7.93;;
9763;SDS011;4921;43.214;27.936;2023-06-22T10:28:48;8.80;;;7.90;;
9763;SDS011;4921;43.214;27.936;2023-06-22T10:31:15;10.13;;;8.37;;
9763;SDS011;4921;43.214;27.936;2023-06-22T10:33:42;9.30;;;8.27;;
9763;SDS011;4921;43.214;27.936;2023-06-22T10:36:11;9.00;;;8.30;;
9763;SDS011;4921;43.214;27.936;2023-06-22T10:38:38;22.07;;;9.10;;
9763;SDS011;4921;43.214;27.936;2023-06-22T10:41:05;9.33;;;8.63;;
9763;SDS011;4921;43.214;27.936;2023-06-22T10:43:32;9.53;;;8.37;;
9763;SDS011;4921;43.214;27.936;2023-06-22T10:45:59;9.40;;;8.27;;
9763;SDS011;4921;43.214;27.936;2023-06-22T10:48:26;9.77;;;8.83;;
9763;SDS011;4921;43.214;27.936;2023-06-22T10:50:53;9.60;;;8.80;;
9763;SDS011;4921;43.214;27.936;2023-06-22T10:53:21;9.10;;;8.40;;
9763;SDS011;4921;43.214;27.936;2023-06-22T10:55:48;11.20;;;9.07;;
9763;SDS011;4921;43.214;27.936;2023-06-22T10:58:17;11.17;;;9.00;;
9763;SDS011;4921;43.214;27.936;2023-06-22T11:00:44;10.03;;;8.77;;
9763;SDS011;4921;43.214;27.936;2023-06-22T11:03:13;9.13;;;8.10;;
9763;SDS011;4921;43.214;27.936;2023-06-22T11:05:40;13.20;;;8.80;;
9763;SDS011;4921;43.214;27.936;2023-06-22T11:08:07;11.23;;;8.90;;
9763;SDS011;4921;43.214;27.936;2023-06-22T11:10:35;9.93;;;8.67;;
9763;SDS011;4921;43.214;27.936;2023-06-22T11:13:02;11.00;;;9.90;;
9763;SDS011;4921;43.214;27.936;2023-06-22T11:15:30;9.83;;;9.03;;
9763;SDS011;4921;43.214;27.936;2023-06-22T11:17:58;9.60;;;8.70;;
9763;SDS011;4921;43.214;27.936;2023-06-22T11:20:24;9.87;;;8.93;;
9763;SDS011;4921;43.214;27.936;2023-06-22T11:22:51;10.13;;;8.87;;
9763;SDS011;4921;43.214;27.936;2023-06-22T11:25:18;10.47;;;9.30;;
9763;SDS011;4921;43.214;27.936;2023-06-22T11:27:47;10.20;;;9.20;;
9763;SDS011;4921;43.214;27.936;2023-06-22T11:30:14;9.77;;;8.97;;
9763;SDS011;4921;43.214;27.936;2023-06-22T11:32:41;10.90;;;9.87;;
9763;SDS011;4921;43.214;27.936;2023-06-22T11:35:08;11.37;;;10.17;;
9763;SDS011;4921;43.214;27.936;2023-06-22T11:37:35;10.50;;;9.50;;
9763;SDS011;4921;43.214;27.936;2023-06-22T11:40:02;10.90;;;9.90;;
9763;SDS011;4921;43.214;27.936;2023-06-22T11:42:34;11.07;;;9.93;;
9763;SDS011;4921;43.214;27.936;2023-06-22T11:45:02;11.63;;;10.53;;
9763;SDS011;4921;43.214;27.936;2023-06-22T11:47:31;11.57;;;10.13;;
9763;SDS011;4921;43.214;27.936;2023-06-22T11:49:58;10.80;;;9.77;;
9763;SDS011;4921;43.214;27.936;2023-06-22T11:52:25;11.27;;;10.17;;
9763;SDS011;4921;43.214;27.936;2023-06-22T11:54:53;11.30;;;10.20;;
9763;SDS011;4921;43.214;27.936;2023-06-22T11:57:19;10.53;;;9.50;;
9763;SDS011;4921;43.214;27.936;2023-06-22T11:59:46;10.60;;;9.60;;
9763;SDS011;4921;43.214;27.936;2023-06-22T12:02:15;10.60;;;9.60;;
9763;SDS011;4921;43.214;27.936;2023-06-22T12:04:42;11.17;;;10.07;;
9763;SDS011;4921;43.214;27.936;2023-06-22T12:07:09;11.13;;;9.70;;
9763;SDS011;4921;43.214;27.936;2023-06-22T12:09:36;11.37;;;10.23;;
9763;SDS011;4921;43.214;27.936;2023-06-22T12:12:03;10.83;;;9.83;;
9763;SDS011;4921;43.214;27.936;2023-06-22T12:14:30;11.23;;;10.03;;
9763;SDS011;4921;43.214;27.936;2023-06-22T12:16:57;11.40;;;10.30;;
9763;SDS011;4921;43.214;27.936;2023-06-22T12:19:26;10.57;;;9.57;;
9763;SDS011;4921;43.214;27.936;2023-06-22T12:21:53;11.07;;;9.87;;
9763;SDS011;4921;43.214;27.936;2023-06-22T12:24:20;10.50;;;9.70;;
9763;SDS011;4921;43.214;27.936;2023-06-22T12:26:47;10.63;;;9.73;;
9763;SDS011;4921;43.214;27.936;2023-06-22T12:29:14;11.27;;;10.10;;
9763;SDS011;4921;43.214;27.936;2023-06-22T12:31:41;10.90;;;9.87;;
9763;SDS011;4921;43.214;27.936;2023-06-22T12:34:08;11.20;;;10.30;;
9763;SDS011;4921;43.214;27.936;2023-06-22T12:36:36;10.47;;;9.37;;
9763;SDS011;4921;43.214;27.936;2023-06-22T12:39:03;10.37;;;9.47;;
9763;SDS011;4921;43.214;27.936;2023-06-22T12:41:30;10.13;;;9.10;;
9763;SDS011;4921;43.214;27.936;2023-06-22T12:43:57;10.17;;;9.10;;
9763;SDS011;4921;43.214;27.936;2023-06-22T12:46:24;10.50;;;9.53;;
9763;SDS011;4921;43.214;27.936;2023-06-22T12:48:51;9.07;;;8.27;;
9763;SDS011;4921;43.214;27.936;2023-06-22T12:51:21;10.70;;;8.83;;
9763;SDS011;4921;43.214;27.936;2023-06-22T12:53:50;9.80;;;8.70;;
9763;SDS011;4921;43.214;27.936;2023-06-22T12:56:17;9.13;;;8.43;;
9763;SDS011;4921;43.214;27.936;2023-06-22T12:58:44;9.23;;;8.43;;
9763;SDS011;4921;43.214;27.936;2023-06-22T13:01:11;11.67;;;8.97;;
9763;SDS011;4921;43.214;27.936;2023-06-22T13:03:38;10.20;;;9.30;;
9763;SDS011;4921;43.214;27.936;2023-06-22T13:06:05;9.43;;;8.53;;
9763;SDS011;4921;43.214;27.936;2023-06-22T13:08:32;9.03;;;8.30;;
9763;SDS011;4921;43.214;27.936;2023-06-22T13:11:00;9.70;;;8.80;;
9763;SDS011;4921;43.214;27.936;2023-06-22T13:13:27;8.73;;;8.00;;
9763;SDS011;4921;43.214;27.936;2023-06-22T13:15:54;9.50;;;8.70;;
9763;SDS011;4921;43.214;27.936;2023-06-22T13:18:21;8.60;;;7.90;;
9763;SDS011;4921;43.214;27.936;2023-06-22T13:20:48;8.50;;;7.60;;
9763;SDS011;4921;43.214;27.936;2023-06-22T13:23:15;8.60;;;7.70;;
9763;SDS011;4921;43.214;27.936;2023-06-22T13:25:42;9.13;;;7.60;;
9763;SDS011;4921;43.214;27.936;2023-06-22T13:28:10;8.27;;;7.50;;
9763;SDS011;4921;43.214;27.936;2023-06-22T13:30:38;13.03;;;7.13;;
9763;SDS011;4921;43.214;27.936;2023-06-22T13:33:06;7.63;;;7.00;;
9763;SDS011;4921;43.214;27.936;2023-06-22T13:35:33;7.83;;;7.23;;
9763;SDS011;4921;43.214;27.936;2023-06-22T13:38:01;10.80;;;9.90;;
9763;SDS011;4921;43.214;27.936;2023-06-22T13:40:28;11.17;;;9.77;;
9763;SDS011;4921;43.214;27.936;2023-06-22T13:42:55;7.63;;;6.83;;
9763;SDS011;4921;43.214;27.936;2023-06-22T13:45:23;7.63;;;6.90;;
9763;SDS011;4921;43.214;27.936;2023-06-22T13:47:50;8.17;;;7.37;;
9763;SDS011;4921;43.214;27.936;2023-06-22T13:50:17;8.13;;;7.43;;
9763;SDS011;4921;43.214;27.936;2023-06-22T13:52:44;7.37;;;6.87;;
9763;SDS011;4921;43.214;27.936;2023-06-22T13:55:11;7.80;;;6.70;;
9763;SDS011;4921;43.214;27.936;2023-06-22T13:57:39;7.60;;;7.00;;
9763;SDS011;4921;43.214;27.936;2023-06-22T14:00:07;7.53;;;6.80;;
9763;SDS011;4921;43.214;27.936;2023-06-22T14:02:36;7.53;;;6.90;;
9763;SDS011;4921;43.214;27.936;2023-06-22T14:05:05;7.00;;;6.40;;
9763;SDS011;4921;43.214;27.936;2023-06-22T14:07:32;6.67;;;6.07;;
9763;SDS011;4921;43.214;27.936;2023-06-22T14:09:59;7.23;;;6.53;;
9763;SDS011;4921;43.214;27.936;2023-06-22T14:12:27;7.73;;;7.13;;
9763;SDS011;4921;43.214;27.936;2023-06-22T14:14:54;7.90;;;7.20;;
9763;SDS011;4921;43.214;27.936;2023-06-22T14:17:22;8.00;;;7.20;;
9763;SDS011;4921;43.214;27.936;2023-06-22T14:19:52;7.20;;;6.57;;
9763;SDS011;4921;43.214;27.936;2023-06-22T14:22:20;7.90;;;7.20;;
9763;SDS011;4921;43.214;27.936;2023-06-22T14:24:47;10.07;;;7.47;;
9763;SDS011;4921;43.214;27.936;2023-06-22T14:27:15;9.07;;;7.83;;
9763;SDS011;4921;43.214;27.936;2023-06-22T14:29:42;8.80;;;7.83;;
9763;SDS011;4921;43.214;27.936;2023-06-22T14:32:09;10.40;;;7.43;;
9763;SDS011;4921;43.214;27.936;2023-06-22T14:34:36;10.63;;;8.07;;
9763;SDS011;4921;43.214;27.936;2023-06-22T14:37:06;9.37;;;8.10;;
9763;SDS011;4921;43.214;27.936;2023-06-22T14:39:34;8.30;;;7.50;;
9763;SDS011;4921;43.214;27.936;2023-06-22T14:42:02;8.33;;;7.63;;
9763;SDS011;4921;43.214;27.936;2023-06-22T14:44:29;8.20;;;7.50;;
9763;SDS011;4921;43.214;27.936;2023-06-22T14:46:57;8.53;;;7.73;;
9763;SDS011;4921;43.214;27.936;2023-06-22T14:49:24;9.10;;;8.20;;
9763;SDS011;4921;43.214;27.936;2023-06-22T14:51:51;8.53;;;7.30;;
9763;SDS011;4921;43.214;27.936;2023-06-22T14:54:20;8.03;;;7.37;;